Time;durP1;ratioP1;P1;durP2;ratioP2;P2;SDS_P1;SDS_P2;PMS_P1;PMS_P2;Temp;Humidity;BMP_temperature;BMP_pressure;BME280_temperature;BME280_humidity;BME280_pressure;Samples;Min_cycle;Max_cycle;Signal;HPM_P1;HPM_P2
2022/01/20 00:01:47;;;;;;;;;;;23.60;49.00;;;;;;1580568;74;1146;-73
2022/01/20 00:03:50;;;;;;;;;;;23.50;49.00;;;;;;1580273;74;1210;-73
2022/01/20 00:26:06;;;;;;;;;;;23.50;49.00;;;;;;1582147;74;1154;-72
2022/01/20 00:28:14;;;;;;;;;;;23.50;48.90;;;;;;1578142;74;1097;-72
2022/01/20 00:37:17;;;;;;;;;;;23.50;48.90;;;;;;1594207;74;880;-72
2022/01/20 00:39:18;;;;;;;;;;;23.50;49.00;;;;;;1591253;74;615;-71
2022/01/20 00:41:20;;;;;;;;;;;23.60;49.00;;;;;;1574025;74;717;-72
2022/01/20 00:43:22;;;;;;;;;;;23.50;49.00;;;;;;1580498;74;727;-72
2022/01/20 00:45:24;;;;;;;;;;;23.50;49.00;;;;;;1585834;74;1124;-72
2022/01/20 00:47:26;;;;;;;;;;;23.50;49.10;;;;;;1596627;74;706;-71
2022/01/20 00:49:28;;;;;;;;;;;23.50;49.00;;;;;;1585825;74;709;-72
2022/01/20 00:51:30;;;;;;;;;;;23.50;49.10;;;;;;1574418;74;1940;-72
2022/01/20 00:53:31;;;;;;;;;;;23.60;49.00;;;;;;1600698;73;1093;-72
2022/01/20 00:55:33;;;;;;;;;;;23.50;49.00;;;;;;1580269;74;1165;-72
2022/01/20 00:57:35;;;;;;;;;;;23.50;49.00;;;;;;1588780;74;710;-72
2022/01/20 00:59:37;;;;;;;;;;;23.50;49.00;;;;;;1566456;74;728;-71
2022/01/20 01:01:39;;;;;;;;;;;23.50;49.00;;;;;;1580415;74;773;-71
2022/01/20 01:03:41;;;;;;;;;;;23.60;49.00;;;;;;1581610;74;1032;-70
2022/01/20 01:06:01;;;;;;;;;;;23.60;49.00;;;;;;1576819;73;1170;-71
2022/01/20 01:07:48;;;;;;;;;;;23.50;49.10;;;;;;1594835;73;1145;-71
2022/01/20 01:09:50;;;;;;;;;;;23.50;49.00;;;;;;1572781;74;681;-72
2022/01/20 01:11:57;;;;;;;;;;;23.50;49.10;;;;;;1580364;74;1950;-72
2022/01/20 01:13:57;;;;;;;;;;;23.50;49.10;;;;;;1580662;74;1018;-72
2022/01/20 01:15:58;;;;;;;;;;;23.50;49.10;;;;;;1603874;73;1164;-72
2022/01/20 01:20:22;;;;;;;;;;;23.40;48.90;;;;;;1591788;74;1662;-72
2022/01/20 01:22:29;;;;;;;;;;;23.40;48.90;;;;;;1578259;74;720;-71
2022/01/20 01:24:28;;;;;;;;;;;23.50;49.10;;;;;;1580244;73;1107;-71
2022/01/20 01:26:30;;;;;;;;;;;23.50;49.20;;;;;;1580301;74;1133;-72
2022/01/20 01:28:32;;;;;;;;;;;23.50;49.10;;;;;;1585973;74;743;-72
2022/01/20 01:32:52;;;;;;;;;;;23.40;49.00;;;;;;1570057;74;1910;-72
2022/01/20 01:34:52;;;;;;;;;;;23.50;49.20;;;;;;1579300;74;1213;-73
2022/01/20 01:39:02;;;;;;;;;;;23.50;49.20;;;;;;1577016;74;771;-72
2022/01/20 01:41:06;;;;;;;;;;;23.40;49.10;;;;;;1595966;74;683;-72
2022/01/20 01:43:15;;;;;;;;;;;23.50;49.20;;;;;;1574996;74;718;-72
2022/01/20 01:45:15;;;;;;;;;;;23.50;49.30;;;;;;1556178;74;1100;-71
2022/01/20 01:47:17;;;;;;;;;;;23.40;49.20;;;;;;1586525;74;711;-71
2022/01/20 01:49:20;;;;;;;;;;;23.40;49.20;;;;;;1576713;74;729;-71
2022/01/20 01:51:22;;;;;;;;;;;23.40;49.20;;;;;;1580291;74;666;-72
2022/01/20 01:53:24;;;;;;;;;;;23.40;49.20;;;;;;1578603;73;1937;-72
2022/01/20 01:55:26;;;;;;;;;;;23.50;49.30;;;;;;1580198;74;1161;-72
2022/01/20 01:57:28;;;;;;;;;;;23.40;49.20;;;;;;1587025;74;717;-71
2022/01/20 01:59:30;;;;;;;;;;;23.40;49.20;;;;;;1580423;74;736;-72
2022/01/20 02:01:35;;;;;;;;;;;23.40;49.20;;;;;;1580302;74;745;-71
2022/01/20 02:03:44;;;;;;;;;;;23.40;49.20;;;;;;1569643;74;1164;-72
2022/01/20 02:05:52;;;;;;;;;;;23.50;49.30;;;;;;1586906;74;1121;-71
2022/01/20 02:19:09;;;;;;;;;;;23.40;49.30;;;;;;1593114;74;1652;-70
2022/01/20 02:21:11;;;;;;;;;;;23.30;49.30;;;;;;1580281;74;778;-70
2022/01/20 02:23:13;;;;;;;;;;;23.30;49.30;;;;;;1587605;74;640;-71
2022/01/20 02:25:19;;;;;;;;;;;23.40;49.30;;;;;;1572702;74;1122;-71
2022/01/20 02:27:21;;;;;;;;;;;23.40;49.30;;;;;;1589993;74;1032;-71
2022/01/20 02:29:23;;;;;;;;;;;23.40;49.40;;;;;;1587634;74;678;-71
2022/01/20 02:31:25;;;;;;;;;;;23.40;49.30;;;;;;1580380;74;717;-71
2022/01/20 02:33:29;;;;;;;;;;;23.30;49.40;;;;;;1580249;74;1936;-71
2022/01/20 02:35:32;;;;;;;;;;;23.40;49.30;;;;;;1570267;74;1170;-72
2022/01/20 02:37:33;;;;;;;;;;;23.40;49.40;;;;;;1575619;74;768;-72
2022/01/20 02:46:18;;;;;;;;;;;23.40;49.40;;;;;;1590993;74;1603;-71
2022/01/20 02:48:20;;;;;;;;;;;23.40;49.40;;;;;;1593466;74;703;-71
2022/01/20 02:50:22;;;;;;;;;;;23.40;49.40;;;;;;1590175;73;592;-72
2022/01/20 02:52:24;;;;;;;;;;;23.40;49.40;;;;;;1551339;76;1935;-72
2022/01/20 02:54:26;;;;;;;;;;;23.40;49.40;;;;;;1535930;76;1254;-71
2022/01/20 02:56:28;;;;;;;;;;;23.40;49.40;;;;;;1539707;76;1166;-72
2022/01/20 02:58:30;;;;;;;;;;;23.40;49.40;;;;;;1547016;76;723;-71
2022/01/20 03:00:33;;;;;;;;;;;23.40;49.40;;;;;;1536352;76;621;-71
2022/01/20 03:02:35;;;;;;;;;;;23.40;49.40;;;;;;1544628;76;762;-72
2022/01/20 03:04:38;;;;;;;;;;;23.40;49.40;;;;;;1536059;76;1133;-71
2022/01/20 03:06:39;;;;;;;;;;;23.40;49.40;;;;;;1527133;76;748;-70
2022/01/20 03:08:41;;;;;;;;;;;23.40;49.40;;;;;;1546999;76;687;-71
2022/01/20 03:10:43;;;;;;;;;;;23.30;49.40;;;;;;1530195;76;758;-73
2022/01/20 03:12:45;;;;;;;;;;;23.40;49.40;;;;;;1538360;76;1950;-72
2022/01/20 03:14:47;;;;;;;;;;;23.40;49.40;;;;;;1539504;76;1176;-71
2022/01/20 03:16:49;;;;;;;;;;;23.30;49.40;;;;;;1547662;76;788;-71
2022/01/20 03:18:51;;;;;;;;;;;23.40;49.30;;;;;;1538110;76;733;-72
2022/01/20 03:20:53;;;;;;;;;;;23.40;49.40;;;;;;1545893;76;820;-71
2022/01/20 03:22:54;;;;;;;;;;;23.40;49.40;;;;;;1540317;76;764;-71
2022/01/20 03:24:58;;;;;;;;;;;23.40;49.40;;;;;;1547065;76;1123;-71
2022/01/20 03:26:59;;;;;;;;;;;23.30;49.40;;;;;;1547333;76;731;-72
2022/01/20 03:29:01;;;;;;;;;;;23.40;49.40;;;;;;1542531;76;717;-71
2022/01/20 03:31:03;;;;;;;;;;;23.30;49.40;;;;;;1543864;76;677;-72
2022/01/20 03:33:05;;;;;;;;;;;23.40;49.40;;;;;;1535600;76;1941;-71
2022/01/20 03:35:07;;;;;;;;;;;23.40;49.40;;;;;;1539764;76;1122;-71
2022/01/20 03:37:09;;;;;;;;;;;23.40;49.40;;;;;;1543813;76;740;-72
2022/01/20 03:39:11;;;;;;;;;;;23.40;49.50;;;;;;1542058;76;725;-72
2022/01/20 03:41:13;;;;;;;;;;;23.40;49.50;;;;;;1534390;76;735;-72
2022/01/20 03:43:15;;;;;;;;;;;23.40;49.50;;;;;;1541573;76;718;-72
2022/01/20 03:45:16;;;;;;;;;;;23.40;49.50;;;;;;1538347;76;1227;-72
2022/01/20 03:47:19;;;;;;;;;;;23.50;49.60;;;;;;1547084;76;723;-72
2022/01/20 03:49:34;;;;;;;;;;;23.40;49.50;;;;;;1545513;76;681;-73
2022/01/20 03:51:30;;;;;;;;;;;23.50;49.60;;;;;;1542085;76;1008;-73
2022/01/20 03:53:35;;;;;;;;;;;23.50;49.70;;;;;;1547297;76;1931;-73
2022/01/20 03:55:37;;;;;;;;;;;23.50;49.70;;;;;;1530700;76;1150;-73
2022/01/20 03:57:38;;;;;;;;;;;23.50;49.70;;;;;;1543917;76;736;-72
2022/01/20 03:59:40;;;;;;;;;;;23.50;49.60;;;;;;1529824;76;843;-72
2022/01/20 04:01:42;;;;;;;;;;;23.50;49.60;;;;;;1524941;77;776;-72
2022/01/20 04:03:44;;;;;;;;;;;23.50;49.70;;;;;;1523733;77;719;-72
2022/01/20 04:05:56;;;;;;;;;;;23.50;49.70;;;;;;1533747;77;1159;-73
2022/01/20 04:07:50;;;;;;;;;;;23.60;49.70;;;;;;1524107;77;1221;-74
2022/01/20 04:09:52;;;;;;;;;;;23.60;49.70;;;;;;1533741;77;709;-74
2022/01/20 04:11:54;;;;;;;;;;;23.60;49.70;;;;;;1525720;77;679;-75
2022/01/20 04:13:55;;;;;;;;;;;23.60;49.70;;;;;;1533227;77;1928;-75
2022/01/20 04:16:00;;;;;;;;;;;23.70;49.70;;;;;;1524732;77;1185;-75
2022/01/20 04:18:02;;;;;;;;;;;23.70;49.70;;;;;;1525628;77;722;-74
2022/01/20 04:20:04;;;;;;;;;;;23.70;49.70;;;;;;1531531;77;733;-74
2022/01/20 04:22:06;;;;;;;;;;;23.70;49.70;;;;;;1526760;77;719;-73
2022/01/20 04:24:08;;;;;;;;;;;23.70;49.60;;;;;;1525188;77;743;-74
2022/01/20 04:26:10;;;;;;;;;;;23.70;49.60;;;;;;1534955;77;1188;-73
2022/01/20 04:28:12;;;;;;;;;;;23.70;49.60;;;;;;1523043;77;707;-73
2022/01/20 04:30:13;;;;;;;;;;;23.70;49.60;;;;;;1522243;77;703;-73
2022/01/20 04:32:15;;;;;;;;;;;23.70;49.50;;;;;;1529969;77;730;-73
2022/01/20 04:34:17;;;;;;;;;;;23.80;49.40;;;;;;1530504;77;1924;-72
2022/01/20 04:36:19;;;;;;;;;;;23.80;49.40;;;;;;1530610;77;1123;-73
2022/01/20 04:38:21;;;;;;;;;;;23.90;49.40;;;;;;1603645;73;727;-73
2022/01/20 04:40:23;;;;;;;;;;;23.90;49.40;;;;;;1594783;73;713;-72
2022/01/20 04:42:27;;;;;;;;;;;23.90;49.30;;;;;;1605221;73;628;-72
2022/01/20 04:46:45;;;;;;;;;;;23.80;49.20;;;;;;1590279;73;831;-77
2022/01/20 04:49:04;;;;;;;;;;;23.80;49.30;;;;;;1598661;73;1143;-75
2022/01/20 04:57:50;;;;;;;;;;;23.90;49.30;;;;;;1586271;74;679;-73
2022/01/20 04:59:52;;;;;;;;;;;23.80;49.20;;;;;;1585689;74;660;-72
2022/01/20 05:01:54;;;;;;;;;;;23.90;49.20;;;;;;1573788;74;712;-73
2022/01/20 05:03:57;;;;;;;;;;;23.90;49.20;;;;;;1584755;74;721;-74
2022/01/20 05:05:59;;;;;;;;;;;23.90;49.20;;;;;;1590397;74;1144;-72
2022/01/20 05:08:01;;;;;;;;;;;23.90;49.10;;;;;;1586354;74;614;-72
2022/01/20 05:10:07;;;;;;;;;;;23.90;49.10;;;;;;1592674;74;766;-72
2022/01/20 05:12:11;;;;;;;;;;;23.90;49.10;;;;;;1594946;74;1104;-73
2022/01/20 05:14:11;;;;;;;;;;;23.90;49.10;;;;;;1600761;73;1919;-73
2022/01/20 05:16:13;;;;;;;;;;;23.90;49.10;;;;;;1598633;74;1164;-74
2022/01/20 05:18:15;;;;;;;;;;;23.90;49.10;;;;;;1598396;74;752;-73
2022/01/20 05:20:17;;;;;;;;;;;23.90;49.10;;;;;;1600037;74;713;-73
2022/01/20 05:22:18;;;;;;;;;;;23.90;49.00;;;;;;1599506;74;730;-72
2022/01/20 05:24:25;;;;;;;;;;;23.90;49.00;;;;;;1595920;74;710;-72
2022/01/20 05:26:24;;;;;;;;;;;23.90;49.00;;;;;;1598018;74;1110;-72
2022/01/20 05:28:26;;;;;;;;;;;23.90;49.00;;;;;;1595684;74;728;-72
2022/01/20 05:30:28;;;;;;;;;;;23.90;49.00;;;;;;1601853;74;712;-72
2022/01/20 05:32:29;;;;;;;;;;;23.90;48.90;;;;;;1602114;74;720;-72
2022/01/20 05:34:31;;;;;;;;;;;23.90;48.90;;;;;;1596749;74;1956;-70
2022/01/20 05:36:33;;;;;;;;;;;23.90;48.90;;;;;;1574656;74;711;-72
2022/01/20 05:38:35;;;;;;;;;;;23.90;48.90;;;;;;1585904;74;706;-73
2022/01/20 05:40:37;;;;;;;;;;;23.90;48.90;;;;;;1586063;74;720;-74
2022/01/20 05:42:39;;;;;;;;;;;23.90;49.00;;;;;;1585784;74;659;-74
2022/01/20 05:44:42;;;;;;;;;;;23.90;48.90;;;;;;1580997;74;1193;-75
2022/01/20 05:46:48;;;;;;;;;;;24.00;48.90;;;;;;1585718;74;769;-74
2022/01/20 05:48:48;;;;;;;;;;;24.00;48.90;;;;;;1596759;74;1140;-72
2022/01/20 05:50:50;;;;;;;;;;;24.00;48.90;;;;;;1602204;74;664;-74
2022/01/20 05:52:52;;;;;;;;;;;24.00;48.90;;;;;;1602129;74;712;-74
2022/01/20 05:54:54;;;;;;;;;;;24.00;48.80;;;;;;1601414;74;1937;-72
2022/01/20 05:56:56;;;;;;;;;;;24.00;48.80;;;;;;1590338;73;720;-71
2022/01/20 05:58:59;;;;;;;;;;;24.00;48.80;;;;;;1591102;73;654;-71
2022/01/20 06:01:01;;;;;;;;;;;24.00;48.70;;;;;;1590800;75;732;-71
2022/01/20 06:05:23;;;;;;;;;;;24.00;48.90;;;;;;1578169;73;1651;-71
2022/01/20 06:07:26;;;;;;;;;;;24.10;49.00;;;;;;1601771;73;719;-71
2022/01/20 06:09:28;;;;;;;;;;;24.00;48.90;;;;;;1586484;73;689;-70
2022/01/20 06:11:30;;;;;;;;;;;24.10;49.00;;;;;;1584849;73;745;-70
2022/01/20 06:13:32;;;;;;;;;;;24.10;49.00;;;;;;1579192;74;1926;-72
2022/01/20 06:15:33;;;;;;;;;;;24.20;48.90;;;;;;1577330;73;1140;-73
2022/01/20 06:17:36;;;;;;;;;;;24.20;48.90;;;;;;1578223;73;759;-72
2022/01/20 06:19:39;;;;;;;;;;;24.10;49.00;;;;;;1596323;73;599;-71
2022/01/20 06:21:41;;;;;;;;;;;24.20;48.80;;;;;;1569956;73;773;-71
2022/01/20 06:23:43;;;;;;;;;;;24.20;48.70;;;;;;1590267;73;705;-72
2022/01/20 06:25:45;;;;;;;;;;;24.10;48.60;;;;;;1580283;73;1135;-74
2022/01/20 06:27:47;;;;;;;;;;;24.10;48.70;;;;;;1602468;73;722;-71
2022/01/20 06:29:49;;;;;;;;;;;24.10;48.60;;;;;;1586327;73;742;-70
2022/01/20 06:31:51;;;;;;;;;;;24.20;48.60;;;;;;1592986;73;726;-72
2022/01/20 06:33:53;;;;;;;;;;;24.10;48.70;;;;;;1592924;73;1946;-69
2022/01/20 06:35:55;;;;;;;;;;;24.20;48.80;;;;;;1586828;73;1155;-72
2022/01/20 06:37:57;;;;;;;;;;;24.20;48.80;;;;;;1591541;73;711;-70
2022/01/20 06:39:59;;;;;;;;;;;24.30;48.90;;;;;;1599838;73;742;-71
2022/01/20 06:42:01;;;;;;;;;;;24.20;48.80;;;;;;1580600;73;625;-71
2022/01/20 06:44:03;;;;;;;;;;;24.20;48.80;;;;;;1601496;73;694;-71
2022/01/20 06:46:04;;;;;;;;;;;24.20;48.80;;;;;;1593558;73;1143;-71
2022/01/20 06:48:07;;;;;;;;;;;24.20;48.80;;;;;;1571794;74;855;-70
2022/01/20 06:50:09;;;;;;;;;;;24.20;48.90;;;;;;1584195;73;763;-72
2022/01/20 06:52:11;;;;;;;;;;;24.10;48.90;;;;;;1604996;73;777;-72
2022/01/20 06:54:13;;;;;;;;;;;24.00;48.70;;;;;;1583604;73;1919;-72
2022/01/20 06:56:15;;;;;;;;;;;24.10;48.80;;;;;;1587996;73;1163;-71
2022/01/20 06:58:17;;;;;;;;;;;24.00;48.70;;;;;;1588620;74;714;-71
2022/01/20 07:00:20;;;;;;;;;;;24.00;48.60;;;;;;1585733;74;733;-71
2022/01/20 07:02:23;;;;;;;;;;;24.00;48.60;;;;;;1585621;74;737;-71
2022/01/20 07:04:27;;;;;;;;;;;24.10;48.80;;;;;;1593157;74;784;-70
2022/01/20 07:06:28;;;;;;;;;;;24.10;48.70;;;;;;1584477;73;1171;-72
2022/01/20 07:08:30;;;;;;;;;;;24.00;48.60;;;;;;1587166;74;658;-72
2022/01/20 07:10:32;;;;;;;;;;;24.00;48.60;;;;;;1585865;74;799;-73
2022/01/20 07:12:34;;;;;;;;;;;24.00;48.60;;;;;;1587339;73;740;-71
2022/01/20 07:14:36;;;;;;;;;;;24.00;48.60;;;;;;1587603;74;1934;-73
2022/01/20 07:16:38;;;;;;;;;;;24.00;48.50;;;;;;1590881;74;797;-71
2022/01/20 07:18:40;;;;;;;;;;;24.00;48.50;;;;;;1598538;74;737;-72
2022/01/20 07:20:41;;;;;;;;;;;24.00;48.50;;;;;;1597628;74;723;-71
2022/01/20 07:22:43;;;;;;;;;;;24.00;48.40;;;;;;1602046;74;686;-72
2022/01/20 07:24:47;;;;;;;;;;;24.00;48.40;;;;;;1601754;74;1242;-72
2022/01/20 07:26:49;;;;;;;;;;;24.00;48.40;;;;;;1602106;74;701;-73
2022/01/20 07:28:51;;;;;;;;;;;23.90;48.40;;;;;;1601080;74;737;-71
2022/01/20 07:30:53;;;;;;;;;;;24.00;48.40;;;;;;1602006;74;711;-71
2022/01/20 07:32:55;;;;;;;;;;;24.00;48.40;;;;;;1602011;74;787;-71
2022/01/20 07:34:56;;;;;;;;;;;24.00;48.40;;;;;;1601686;74;1920;-73
2022/01/20 07:36:58;;;;;;;;;;;24.00;48.30;;;;;;1601602;74;728;-73
2022/01/20 07:39:00;;;;;;;;;;;24.00;48.40;;;;;;1601597;74;730;-72
2022/01/20 07:41:02;;;;;;;;;;;24.00;48.40;;;;;;1598732;74;678;-71
2022/01/20 07:43:04;;;;;;;;;;;24.00;48.30;;;;;;1602003;74;728;-73
2022/01/20 07:45:06;;;;;;;;;;;23.90;48.20;;;;;;1600107;74;1155;-69
2022/01/20 07:47:08;;;;;;;;;;;24.00;47.90;;;;;;1601937;74;712;-68
2022/01/20 07:49:10;;;;;;;;;;;23.90;47.30;;;;;;1601534;74;776;-70
2022/01/20 07:51:12;;;;;;;;;;;23.90;47.20;;;;;;1601737;74;797;-70
2022/01/20 07:53:13;;;;;;;;;;;23.90;46.80;;;;;;1599470;74;698;-69
2022/01/20 07:55:15;;;;;;;;;;;23.80;46.30;;;;;;1595168;74;1930;-69
2022/01/20 07:57:18;;;;;;;;;;;23.90;46.00;;;;;;1587523;74;1005;-70
2022/01/20 07:59:20;;;;;;;;;;;23.90;45.50;;;;;;1584720;73;718;-72
2022/01/20 08:01:24;;;;;;;;;;;23.70;44.70;;;;;;1590523;74;683;-71
2022/01/20 08:03:26;;;;;;;;;;;23.70;44.80;;;;;;1586599;73;817;-72
2022/01/20 08:05:28;;;;;;;;;;;23.60;44.00;;;;;;1598742;73;1196;-71
2022/01/20 08:07:30;;;;;;;;;;;23.70;44.50;;;;;;1594756;73;730;-72
2022/01/20 08:09:32;;;;;;;;;;;23.60;44.40;;;;;;1581318;75;669;-73
2022/01/20 08:11:33;;;;;;;;;;;23.60;43.60;;;;;;1587138;75;704;-72
2022/01/20 08:13:35;;;;;;;;;;;23.60;43.40;;;;;;1587240;73;738;-71
2022/01/20 08:15:37;;;;;;;;;;;23.50;41.80;;;;;;1598475;73;1952;-70
2022/01/20 08:17:40;;;;;;;;;;;23.50;41.80;;;;;;1594879;73;728;-69
2022/01/20 08:19:42;;;;;;;;;;;23.40;41.10;;;;;;1591028;73;762;-71
2022/01/20 08:21:43;;;;;;;;;;;23.50;41.50;;;;;;1590144;75;731;-72
2022/01/20 08:23:45;;;;;;;;;;;23.50;40.80;;;;;;1583702;75;691;-71
2022/01/20 08:25:47;;;;;;;;;;;23.30;40.40;;;;;;1589201;73;1196;-72
2022/01/20 08:27:49;;;;;;;;;;;23.40;39.40;;;;;;1583926;75;765;-72
2022/01/20 08:29:51;;;;;;;;;;;23.30;39.40;;;;;;1597690;73;746;-72
2022/01/20 08:31:53;;;;;;;;;;;23.30;39.80;;;;;;1591538;73;663;-71
2022/01/20 08:33:55;;;;;;;;;;;23.30;39.00;;;;;;1590240;73;722;-71
2022/01/20 08:35:56;;;;;;;;;;;23.20;39.00;;;;;;1590219;73;1927;-70
2022/01/20 08:37:59;;;;;;;;;;;23.20;39.30;;;;;;1590593;73;782;-72
2022/01/20 08:40:04;;;;;;;;;;;23.10;38.10;;;;;;1590463;73;760;-75
2022/01/20 08:42:06;;;;;;;;;;;23.10;38.90;;;;;;1595797;73;1116;-74
2022/01/20 08:44:09;;;;;;;;;;;23.00;38.80;;;;;;1589772;73;731;-72
2022/01/20 08:46:11;;;;;;;;;;;23.00;39.30;;;;;;1590868;73;1124;-72
2022/01/20 08:48:13;;;;;;;;;;;23.00;39.50;;;;;;1590151;73;781;-71
2022/01/20 08:50:16;;;;;;;;;;;23.00;39.20;;;;;;1589504;75;634;-71
2022/01/20 08:52:18;;;;;;;;;;;23.00;39.50;;;;;;1591057;73;713;-69
2022/01/20 08:54:20;;;;;;;;;;;23.00;39.80;;;;;;1590275;75;1923;-71
2022/01/20 08:56:22;;;;;;;;;;;22.90;40.40;;;;;;1586254;73;1122;-70
2022/01/20 08:58:23;;;;;;;;;;;23.00;40.80;;;;;;1590701;73;1081;-71
2022/01/20 09:00:29;;;;;;;;;;;23.10;41.10;;;;;;1572681;73;767;-71
2022/01/20 09:02:31;;;;;;;;;;;23.00;41.20;;;;;;1590512;73;725;-70
2022/01/20 09:04:33;;;;;;;;;;;23.10;41.50;;;;;;1588210;73;1185;-69
2022/01/20 09:06:35;;;;;;;;;;;23.00;41.50;;;;;;1572260;73;729;-69
2022/01/20 09:08:38;;;;;;;;;;;23.10;41.70;;;;;;1577890;73;766;-69
2022/01/20 09:10:43;;;;;;;;;;;23.20;41.80;;;;;;1587795;73;816;-69
2022/01/20 09:17:07;;;;;;;;;;;23.20;42.10;;;;;;1589963;73;743;-69
2022/01/20 09:19:09;;;;;;;;;;;23.30;42.20;;;;;;1583471;73;712;-71
2022/01/20 09:21:11;;;;;;;;;;;23.30;42.20;;;;;;1589882;73;687;-71
2022/01/20 09:23:12;;;;;;;;;;;23.30;42.30;;;;;;1583535;73;667;-71
2022/01/20 09:25:15;;;;;;;;;;;23.30;42.30;;;;;;1584070;73;1216;-71
2022/01/20 09:27:18;;;;;;;;;;;23.40;42.40;;;;;;1590939;73;830;-71
2022/01/20 09:29:19;;;;;;;;;;;23.40;42.40;;;;;;1596112;73;708;-71
2022/01/20 09:31:23;;;;;;;;;;;23.40;42.50;;;;;;1587409;73;765;-70
2022/01/20 09:33:27;;;;;;;;;;;23.40;42.50;;;;;;1590987;73;653;-70
2022/01/20 09:35:30;;;;;;;;;;;23.50;42.70;;;;;;1587259;73;1911;-71
2022/01/20 09:37:32;;;;;;;;;;;23.50;42.70;;;;;;1589077;73;813;-71
2022/01/20 09:39:34;;;;;;;;;;;23.50;42.80;;;;;;1563910;73;676;-71
2022/01/20 09:41:36;;;;;;;;;;;23.50;42.80;;;;;;1590193;73;719;-71
2022/01/20 09:43:38;;;;;;;;;;;23.60;42.80;;;;;;1588181;75;809;-71
2022/01/20 09:45:39;;;;;;;;;;;23.50;42.80;;;;;;1570424;75;1125;-69
2022/01/20 09:47:42;;;;;;;;;;;23.60;43.00;;;;;;1588526;73;791;-67
2022/01/20 09:49:44;;;;;;;;;;;23.60;42.90;;;;;;1596998;73;762;-72
2022/01/20 09:51:46;;;;;;;;;;;23.60;42.90;;;;;;1583447;75;770;-73
2022/01/20 09:53:48;;;;;;;;;;;23.60;42.90;;;;;;1589445;73;710;-73
2022/01/20 09:55:50;;;;;;;;;;;23.60;43.00;;;;;;1580669;73;1952;-73
2022/01/20 09:57:52;;;;;;;;;;;23.70;43.20;;;;;;1579895;73;1078;-71
2022/01/20 09:59:54;;;;;;;;;;;23.70;43.20;;;;;;1572379;73;656;-72
2022/01/20 10:01:58;;;;;;;;;;;23.70;43.30;;;;;;1581692;75;669;-70
2022/01/20 10:04:00;;;;;;;;;;;23.70;43.30;;;;;;1583990;75;770;-71
2022/01/20 10:06:02;;;;;;;;;;;23.80;43.20;;;;;;1587521;73;1176;-72
2022/01/20 10:08:05;;;;;;;;;;;23.70;43.30;;;;;;1578324;73;730;-72
2022/01/20 10:10:08;;;;;;;;;;;23.70;43.30;;;;;;1573985;73;695;-73
2022/01/20 10:12:11;;;;;;;;;;;23.70;43.40;;;;;;1567598;73;715;-72
2022/01/20 10:14:12;;;;;;;;;;;23.70;43.40;;;;;;1574829;73;821;-69
2022/01/20 10:16:16;;;;;;;;;;;23.70;43.40;;;;;;1573327;73;1940;-72
2022/01/20 10:18:18;;;;;;;;;;;23.70;43.40;;;;;;1579804;73;717;-72
2022/01/20 10:20:20;;;;;;;;;;;23.70;43.60;;;;;;1583128;73;708;-73
2022/01/20 10:22:26;;;;;;;;;;;23.80;43.50;;;;;;1585984;74;686;-72
2022/01/20 10:24:26;;;;;;;;;;;23.70;43.60;;;;;;1587240;73;994;-71
2022/01/20 10:26:28;;;;;;;;;;;23.80;43.60;;;;;;1574695;73;1152;-71
2022/01/20 10:28:30;;;;;;;;;;;23.70;43.60;;;;;;1583799;75;714;-71
2022/01/20 10:30:33;;;;;;;;;;;23.80;43.70;;;;;;1581215;73;769;-72
2022/01/20 10:32:45;;;;;;;;;;;23.70;43.70;;;;;;1586409;73;737;-72
2022/01/20 10:34:46;;;;;;;;;;;23.80;43.70;;;;;;1588068;73;1937;-73
2022/01/20 10:36:51;;;;;;;;;;;23.80;43.70;;;;;;1588213;73;749;-70
2022/01/20 10:38:53;;;;;;;;;;;23.80;43.80;;;;;;1580038;73;712;-74
2022/01/20 10:40:58;;;;;;;;;;;23.80;43.80;;;;;;1582463;73;726;-71
2022/01/20 10:42:59;;;;;;;;;;;23.80;43.80;;;;;;1591289;73;1469;-73
2022/01/20 10:45:01;;;;;;;;;;;23.80;43.90;;;;;;1584915;73;1093;-71
2022/01/20 10:47:04;;;;;;;;;;;23.80;43.90;;;;;;1584175;73;729;-69
2022/01/20 10:49:06;;;;;;;;;;;23.80;43.90;;;;;;1594296;73;711;-71
2022/01/20 10:51:17;;;;;;;;;;;23.80;43.90;;;;;;1591007;73;716;-72
2022/01/20 10:53:22;;;;;;;;;;;23.80;43.90;;;;;;1566293;75;718;-67
2022/01/20 10:55:25;;;;;;;;;;;23.80;43.90;;;;;;1576519;73;1942;-71
2022/01/20 10:57:29;;;;;;;;;;;23.90;44.00;;;;;;1580820;73;774;-70
2022/01/20 10:59:33;;;;;;;;;;;23.90;44.00;;;;;;1596875;73;1112;-71
2022/01/20 11:01:35;;;;;;;;;;;23.90;44.00;;;;;;1597703;73;785;-72
2022/01/20 11:03:36;;;;;;;;;;;23.90;44.10;;;;;;1598758;73;728;-72
2022/01/20 11:05:39;;;;;;;;;;;24.00;44.00;;;;;;1574680;73;1122;-70
2022/01/20 11:07:42;;;;;;;;;;;23.90;44.00;;;;;;1593452;74;717;-70
2022/01/20 11:09:47;;;;;;;;;;;23.90;44.10;;;;;;1595337;73;709;-72
2022/01/20 11:11:49;;;;;;;;;;;23.90;44.10;;;;;;1592945;73;1108;-70
2022/01/20 11:13:50;;;;;;;;;;;24.00;44.10;;;;;;1575969;75;719;-71
2022/01/20 11:15:52;;;;;;;;;;;24.00;44.10;;;;;;1581128;73;1953;-71
2022/01/20 11:17:55;;;;;;;;;;;24.00;44.10;;;;;;1602607;73;756;-72
2022/01/20 11:19:58;;;;;;;;;;;24.00;44.00;;;;;;1573803;73;784;-70
2022/01/20 11:22:06;;;;;;;;;;;24.00;44.00;;;;;;1577486;73;729;-71
2022/01/20 11:24:09;;;;;;;;;;;24.10;44.10;;;;;;1601826;73;723;-72
2022/01/20 11:26:11;;;;;;;;;;;24.00;43.90;;;;;;1590183;73;1195;-72
2022/01/20 11:28:15;;;;;;;;;;;24.00;43.90;;;;;;1582859;73;714;-71
2022/01/20 11:30:18;;;;;;;;;;;24.00;43.90;;;;;;1601617;73;1128;-71
2022/01/20 11:32:21;;;;;;;;;;;24.00;43.90;;;;;;1603959;73;602;-73
2022/01/20 11:34:24;;;;;;;;;;;24.10;44.10;;;;;;1593370;73;764;-71
2022/01/20 11:36:27;;;;;;;;;;;24.10;44.10;;;;;;1581517;73;1915;-69
2022/01/20 11:38:49;;;;;;;;;;;24.00;44.00;;;;;;1589539;73;758;-72
2022/01/20 11:41:00;;;;;;;;;;;24.00;44.00;;;;;;1576336;73;1579;-71
2022/01/20 11:43:09;;;;;;;;;;;24.00;44.00;;;;;;1589477;74;999;-69
2022/01/20 11:45:23;;;;;;;;;;;24.00;44.10;;;;;;1590240;73;1180;-72
2022/01/20 11:47:32;;;;;;;;;;;24.00;44.10;;;;;;1548102;75;1192;-71
2022/01/20 11:49:35;;;;;;;;;;;24.00;44.20;;;;;;1589619;73;685;-72
2022/01/20 11:51:44;;;;;;;;;;;24.00;44.20;;;;;;1588816;73;650;-71
2022/01/20 11:53:51;;;;;;;;;;;24.00;44.20;;;;;;1589748;73;658;-69
2022/01/20 11:55:53;;;;;;;;;;;24.00;44.20;;;;;;1582835;73;1943;-71
2022/01/20 11:57:55;;;;;;;;;;;24.10;44.20;;;;;;1590298;73;723;-71
2022/01/20 12:00:00;;;;;;;;;;;24.00;44.20;;;;;;1598515;73;1037;-70
2022/01/20 12:02:01;;;;;;;;;;;24.10;44.30;;;;;;1599320;74;703;-70
2022/01/20 12:04:03;;;;;;;;;;;24.00;44.10;;;;;;1602076;74;721;-70
2022/01/20 12:06:14;;;;;;;;;;;24.00;44.20;;;;;;1598069;74;1191;-71
2022/01/20 12:08:18;;;;;;;;;;;24.10;44.20;;;;;;1595623;74;1722;-70
2022/01/20 12:10:23;;;;;;;;;;;24.10;44.20;;;;;;1601908;73;1098;-69
2022/01/20 12:12:26;;;;;;;;;;;24.10;44.20;;;;;;1597314;73;735;-73
2022/01/20 12:14:35;;;;;;;;;;;24.00;44.10;;;;;;1598873;73;686;-72
2022/01/20 12:16:33;;;;;;;;;;;24.10;44.20;;;;;;1585009;74;1935;-73
2022/01/20 12:18:35;;;;;;;;;;;24.10;44.20;;;;;;1598825;74;733;-71
2022/01/20 12:20:37;;;;;;;;;;;24.00;44.20;;;;;;1586576;74;729;-72
2022/01/20 12:22:39;;;;;;;;;;;24.10;44.30;;;;;;1601889;74;743;-71
2022/01/20 12:24:43;;;;;;;;;;;24.00;44.20;;;;;;1586681;74;1140;-72
2022/01/20 12:26:45;;;;;;;;;;;24.00;44.20;;;;;;1583385;74;1077;-71
2022/01/20 12:28:47;;;;;;;;;;;24.00;44.20;;;;;;1585655;74;711;-70
2022/01/20 12:30:49;;;;;;;;;;;24.00;44.30;;;;;;1576433;74;704;-73
2022/01/20 12:33:02;;;;;;;;;;;24.00;44.30;;;;;;1597398;74;707;-73
2022/01/20 12:35:04;;;;;;;;;;;24.00;44.30;;;;;;1598579;74;1164;-71
2022/01/20 12:37:06;;;;;;;;;;;24.00;44.40;;;;;;1601772;74;1937;-71
2022/01/20 12:39:08;;;;;;;;;;;24.00;44.40;;;;;;1599586;74;713;-72
2022/01/20 12:41:11;;;;;;;;;;;24.00;44.40;;;;;;1581345;75;1211;-70
2022/01/20 12:43:13;;;;;;;;;;;24.00;44.40;;;;;;1592855;74;702;-71
2022/01/20 12:47:43;;;;;;;;;;;24.00;44.40;;;;;;1588360;74;1648;-71
2022/01/20 12:49:46;;;;;;;;;;;24.00;44.40;;;;;;1590671;74;712;-71
2022/01/20 12:51:50;;;;;;;;;;;24.00;44.40;;;;;;1584271;74;1135;-73
2022/01/20 12:53:57;;;;;;;;;;;23.90;44.40;;;;;;1578305;74;786;-72
2022/01/20 12:55:58;;;;;;;;;;;24.00;44.50;;;;;;1577970;74;1934;-71
2022/01/20 12:58:00;;;;;;;;;;;23.90;44.40;;;;;;1593278;73;644;-69
2022/01/20 13:00:02;;;;;;;;;;;23.90;44.50;;;;;;1594631;73;1078;-69
2022/01/20 13:02:06;;;;;;;;;;;23.90;44.50;;;;;;1562658;75;1250;-70
2022/01/20 13:04:09;;;;;;;;;;;23.90;44.50;;;;;;1527731;77;737;-70
2022/01/20 13:06:19;;;;;;;;;;;24.00;44.60;;;;;;1522772;77;1210;-71
2022/01/20 13:08:25;;;;;;;;;;;24.00;44.60;;;;;;1530199;76;1195;-71
2022/01/20 13:10:32;;;;;;;;;;;23.90;44.70;;;;;;1528222;77;994;-71
2022/01/20 13:12:41;;;;;;;;;;;23.90;44.70;;;;;;1526311;76;1156;-72
2022/01/20 13:14:47;;;;;;;;;;;23.90;44.80;;;;;;1528471;77;1243;-72
2022/01/20 13:16:52;;;;;;;;;;;24.00;44.80;;;;;;1528036;77;1905;-72
2022/01/20 13:18:55;;;;;;;;;;;24.00;44.80;;;;;;1522400;77;743;-72
2022/01/20 13:20:59;;;;;;;;;;;23.90;44.90;;;;;;1541968;77;1025;-71
2022/01/20 13:25:29;;;;;;;;;;;23.90;44.90;;;;;;1532743;77;1108;-72